sensor_id;sensor_type;location;lat;lon;timestamp;temperature;humidity
41722;DHT22;27407;24.142;-110.310;2023-03-11T00:00:35;33.00;52.30
41722;DHT22;27407;24.142;-110.310;2023-03-11T00:03:04;32.50;52.90
41722;DHT22;27407;24.142;-110.310;2023-03-11T00:05:35;32.30;56.20
41722;DHT22;27407;24.142;-110.310;2023-03-11T00:08:03;32.40;53.80
41722;DHT22;27407;24.142;-110.310;2023-03-11T00:10:39;32.10;54.20
41722;DHT22;27407;24.142;-110.310;2023-03-11T00:13:07;32.50;55.00
41722;DHT22;27407;24.142;-110.310;2023-03-11T00:15:36;32.40;56.80
41722;DHT22;27407;24.142;-110.310;2023-03-11T00:18:06;34.40;58.30
41722;DHT22;27407;24.142;-110.310;2023-03-11T00:20:35;31.40;59.00
41722;DHT22;27407;24.142;-110.310;2023-03-11T00:23:04;31.00;58.80
41722;DHT22;27407;24.142;-110.310;2023-03-11T00:25:36;30.60;59.50
41722;DHT22;27407;24.142;-110.310;2023-03-11T00:28:04;30.10;59.80
41722;DHT22;27407;24.142;-110.310;2023-03-11T00:30:37;30.40;59.30
41722;DHT22;27407;24.142;-110.310;2023-03-11T00:33:04;30.20;58.50
41722;DHT22;27407;24.142;-110.310;2023-03-11T00:35:33;30.40;58.20
41722;DHT22;27407;24.142;-110.310;2023-03-11T00:38:03;30.30;58.50
41722;DHT22;27407;24.142;-110.310;2023-03-11T00:40:31;30.30;58.70
41722;DHT22;27407;24.142;-110.310;2023-03-11T00:42:58;30.40;58.40
41722;DHT22;27407;24.142;-110.310;2023-03-11T00:45:26;30.70;59.50
41722;DHT22;27407;24.142;-110.310;2023-03-11T00:47:54;30.10;59.10
41722;DHT22;27407;24.142;-110.310;2023-03-11T00:50:23;28.90;58.40
41722;DHT22;27407;24.142;-110.310;2023-03-11T00:52:51;30.30;58.70
41722;DHT22;27407;24.142;-110.310;2023-03-11T00:55:21;30.30;59.40
41722;DHT22;27407;24.142;-110.310;2023-03-11T00:57:52;30.30;59.70
41722;DHT22;27407;24.142;-110.310;2023-03-11T01:00:20;30.50;60.20
41722;DHT22;27407;24.142;-110.310;2023-03-11T01:02:47;30.20;59.80
41722;DHT22;27407;24.142;-110.310;2023-03-11T01:05:14;29.90;60.50
41722;DHT22;27407;24.142;-110.310;2023-03-11T01:07:41;29.50;60.40
41722;DHT22;27407;24.142;-110.310;2023-03-11T01:10:09;29.50;61.10
41722;DHT22;27407;24.142;-110.310;2023-03-11T01:15:03;28.90;63.00
41722;DHT22;27407;24.142;-110.310;2023-03-11T01:17:31;28.70;64.30
41722;DHT22;27407;24.142;-110.310;2023-03-11T01:24:51;27.20;68.40
41722;DHT22;27407;24.142;-110.310;2023-03-11T01:27:18;27.00;69.90
41722;DHT22;27407;24.142;-110.310;2023-03-11T01:29:44;26.70;71.30
41722;DHT22;27407;24.142;-110.310;2023-03-11T01:32:11;26.40;72.30
41722;DHT22;27407;24.142;-110.310;2023-03-11T01:37:04;26.30;74.00
41722;DHT22;27407;24.142;-110.310;2023-03-11T01:39:31;25.50;74.30
41722;DHT22;27407;24.142;-110.310;2023-03-11T01:42:01;26.00;75.40
41722;DHT22;27407;24.142;-110.310;2023-03-11T01:49:24;25.10;76.10
41722;DHT22;27407;24.142;-110.310;2023-03-11T01:51:56;25.70;76.70
41722;DHT22;27407;24.142;-110.310;2023-03-11T01:54:34;25.60;77.40
41722;DHT22;27407;24.142;-110.310;2023-03-11T01:57:05;25.60;78.60
41722;DHT22;27407;24.142;-110.310;2023-03-11T01:59:37;25.30;78.90
41722;DHT22;27407;24.142;-110.310;2023-03-11T02:02:29;25.30;78.70
41722;DHT22;27407;24.142;-110.310;2023-03-11T02:05:08;25.20;78.70
41722;DHT22;27407;24.142;-110.310;2023-03-11T02:07:39;25.10;78.80
41722;DHT22;27407;24.142;-110.310;2023-03-11T02:10:07;25.00;79.00
41722;DHT22;27407;24.142;-110.310;2023-03-11T02:12:35;25.00;79.00
41722;DHT22;27407;24.142;-110.310;2023-03-11T02:15:04;25.10;79.30
41722;DHT22;27407;24.142;-110.310;2023-03-11T02:17:32;24.80;78.30
41722;DHT22;27407;24.142;-110.310;2023-03-11T02:22:44;24.70;77.70
41722;DHT22;27407;24.142;-110.310;2023-03-11T02:25:23;24.60;77.40
41722;DHT22;27407;24.142;-110.310;2023-03-11T02:27:53;24.60;77.00
41722;DHT22;27407;24.142;-110.310;2023-03-11T02:30:22;24.60;76.80
41722;DHT22;27407;24.142;-110.310;2023-03-11T02:32:50;24.50;77.00
41722;DHT22;27407;24.142;-110.310;2023-03-11T02:35:16;24.50;77.50
41722;DHT22;27407;24.142;-110.310;2023-03-11T02:37:47;25.50;78.50
41722;DHT22;27407;24.142;-110.310;2023-03-11T02:40:28;24.30;78.00
41722;DHT22;27407;24.142;-110.310;2023-03-11T02:42:59;24.20;78.50
41722;DHT22;27407;24.142;-110.310;2023-03-11T02:45:27;24.20;79.00
41722;DHT22;27407;24.142;-110.310;2023-03-11T02:47:56;24.10;79.50
41722;DHT22;27407;24.142;-110.310;2023-03-11T02:50:24;24.40;80.70
41722;DHT22;27407;24.142;-110.310;2023-03-11T02:52:52;24.00;81.50
41722;DHT22;27407;24.142;-110.310;2023-03-11T02:55:20;24.00;83.00
41722;DHT22;27407;24.142;-110.310;2023-03-11T02:57:47;24.00;84.20
41722;DHT22;27407;24.142;-110.310;2023-03-11T03:00:15;23.30;84.20
41722;DHT22;27407;24.142;-110.310;2023-03-11T03:02:43;23.70;85.50
41722;DHT22;27407;24.142;-110.310;2023-03-11T03:05:11;24.10;86.60
41722;DHT22;27407;24.142;-110.310;2023-03-11T03:07:38;23.90;87.40
41722;DHT22;27407;24.142;-110.310;2023-03-11T03:10:06;23.80;87.40
41722;DHT22;27407;24.142;-110.310;2023-03-11T03:12:35;23.00;87.20
41722;DHT22;27407;24.142;-110.310;2023-03-11T03:15:02;23.50;87.80
41722;DHT22;27407;24.142;-110.310;2023-03-11T03:17:29;23.60;88.50
41722;DHT22;27407;24.142;-110.310;2023-03-11T03:19:56;23.50;88.70
41722;DHT22;27407;24.142;-110.310;2023-03-11T03:22:22;23.50;89.20
41722;DHT22;27407;24.142;-110.310;2023-03-11T03:24:52;23.30;89.90
41722;DHT22;27407;24.142;-110.310;2023-03-11T03:27:19;23.30;90.00
41722;DHT22;27407;24.142;-110.310;2023-03-11T03:29:46;23.30;90.30
41722;DHT22;27407;24.142;-110.310;2023-03-11T03:32:16;23.20;90.30
41722;DHT22;27407;24.142;-110.310;2023-03-11T03:34:42;23.30;91.50
41722;DHT22;27407;24.142;-110.310;2023-03-11T03:37:09;23.70;91.20
41722;DHT22;27407;24.142;-110.310;2023-03-11T03:49:22;23.00;91.40
41722;DHT22;27407;24.142;-110.310;2023-03-11T03:51:49;23.00;91.40
41722;DHT22;27407;24.142;-110.310;2023-03-11T03:56:42;22.90;91.40
41722;DHT22;27407;24.142;-110.310;2023-03-11T04:04:03;22.50;81.10
41722;DHT22;27407;24.142;-110.310;2023-03-11T04:11:23;22.50;81.00
41722;DHT22;27407;24.142;-110.310;2023-03-11T04:13:50;22.50;81.00
41722;DHT22;27407;24.142;-110.310;2023-03-11T04:16:18;21.10;78.30
41722;DHT22;27407;24.142;-110.310;2023-03-11T04:18:46;22.00;80.50
41722;DHT22;27407;24.142;-110.310;2023-03-11T04:21:13;22.40;80.70
41722;DHT22;27407;24.142;-110.310;2023-03-11T04:23:40;22.30;81.20
41722;DHT22;27407;24.142;-110.310;2023-03-11T04:26:07;22.30;82.00
41722;DHT22;27407;24.142;-110.310;2023-03-11T04:45:40;21.70;78.00
41722;DHT22;27407;24.142;-110.310;2023-03-11T05:05:18;21.10;76.80
41722;DHT22;27407;24.142;-110.310;2023-03-11T05:10:12;21.10;77.80
41722;DHT22;27407;24.142;-110.310;2023-03-11T05:15:06;21.10;77.80
41722;DHT22;27407;24.142;-110.310;2023-03-11T05:29:46;21.10;80.30
41722;DHT22;27407;24.142;-110.310;2023-03-11T05:32:13;20.80;80.70
41722;DHT22;27407;24.142;-110.310;2023-03-11T05:34:40;21.40;81.50
41722;DHT22;27407;24.142;-110.310;2023-03-11T05:37:07;21.00;82.20
41722;DHT22;27407;24.142;-110.310;2023-03-11T05:39:34;21.00;83.20
41722;DHT22;27407;24.142;-110.310;2023-03-11T05:42:03;21.10;83.40
41722;DHT22;27407;24.142;-110.310;2023-03-11T05:44:31;21.30;83.70
41722;DHT22;27407;24.142;-110.310;2023-03-11T05:51:51;22.50;85.50
41722;DHT22;27407;24.142;-110.310;2023-03-11T05:54:27;20.80;83.10
41722;DHT22;27407;24.142;-110.310;2023-03-11T05:59:27;20.80;81.50
41722;DHT22;27407;24.142;-110.310;2023-03-11T06:11:41;20.50;82.90
41722;DHT22;27407;24.142;-110.310;2023-03-11T06:14:12;20.30;83.10
41722;DHT22;27407;24.142;-110.310;2023-03-11T06:16:40;20.20;83.80
41722;DHT22;27407;24.142;-110.310;2023-03-11T06:31:27;20.20;84.10
41722;DHT22;27407;24.142;-110.310;2023-03-11T06:33:55;20.20;83.80
41722;DHT22;27407;24.142;-110.310;2023-03-11T06:36:22;20.20;84.10
41722;DHT22;27407;24.142;-110.310;2023-03-11T06:38:51;19.80;83.70
41722;DHT22;27407;24.142;-110.310;2023-03-11T06:41:18;20.20;83.80
41722;DHT22;27407;24.142;-110.310;2023-03-11T06:46:19;20.40;83.60
41722;DHT22;27407;24.142;-110.310;2023-03-11T06:48:46;20.30;83.60
41722;DHT22;27407;24.142;-110.310;2023-03-11T06:51:17;20.40;83.00
41722;DHT22;27407;24.142;-110.310;2023-03-11T06:53:48;20.30;83.00
41722;DHT22;27407;24.142;-110.310;2023-03-11T06:56:15;20.00;81.60
41722;DHT22;27407;24.142;-110.310;2023-03-11T06:58:42;19.30;80.90
41722;DHT22;27407;24.142;-110.310;2023-03-11T07:01:23;20.00;81.60
41722;DHT22;27407;24.142;-110.310;2023-03-11T07:03:50;20.00;82.90
41722;DHT22;27407;24.142;-110.310;2023-03-11T07:06:22;19.80;81.40
41722;DHT22;27407;24.142;-110.310;2023-03-11T07:08:51;20.00;80.40
41722;DHT22;27407;24.142;-110.310;2023-03-11T07:11:25;20.00;79.80
41722;DHT22;27407;24.142;-110.310;2023-03-11T07:13:53;19.90;80.80
41722;DHT22;27407;24.142;-110.310;2023-03-11T07:16:22;19.80;80.50
41722;DHT22;27407;24.142;-110.310;2023-03-11T07:18:50;20.00;80.80
41722;DHT22;27407;24.142;-110.310;2023-03-11T07:21:20;19.90;80.80
41722;DHT22;27407;24.142;-110.310;2023-03-11T07:23:50;20.60;80.70
41722;DHT22;27407;24.142;-110.310;2023-03-11T07:28:44;19.80;80.80
41722;DHT22;27407;24.142;-110.310;2023-03-11T07:31:16;20.30;79.60
41722;DHT22;27407;24.142;-110.310;2023-03-11T07:33:43;19.60;77.90
41722;DHT22;27407;24.142;-110.310;2023-03-11T07:36:18;19.50;77.60
41722;DHT22;27407;24.142;-110.310;2023-03-11T07:38:45;19.40;77.50
41722;DHT22;27407;24.142;-110.310;2023-03-11T07:41:13;19.30;76.40
41722;DHT22;27407;24.142;-110.310;2023-03-11T07:43:41;19.20;75.90
41722;DHT22;27407;24.142;-110.310;2023-03-11T07:46:14;19.20;76.20
41722;DHT22;27407;24.142;-110.310;2023-03-11T07:48:44;19.30;76.60
41722;DHT22;27407;24.142;-110.310;2023-03-11T07:51:18;19.20;74.60
41722;DHT22;27407;24.142;-110.310;2023-03-11T07:53:47;19.10;74.50
41722;DHT22;27407;24.142;-110.310;2023-03-11T07:56:15;19.30;75.30
41722;DHT22;27407;24.142;-110.310;2023-03-11T07:58:42;19.10;75.50
41722;DHT22;27407;24.142;-110.310;2023-03-11T08:01:14;19.20;76.90
41722;DHT22;27407;24.142;-110.310;2023-03-11T08:03:43;18.90;77.20
41722;DHT22;27407;24.142;-110.310;2023-03-11T08:06:18;18.80;75.10
41722;DHT22;27407;24.142;-110.310;2023-03-11T08:08:46;18.60;75.50
41722;DHT22;27407;24.142;-110.310;2023-03-11T08:11:13;18.70;75.90
41722;DHT22;27407;24.142;-110.310;2023-03-11T08:13:44;18.60;77.10
41722;DHT22;27407;24.142;-110.310;2023-03-11T08:16:14;19.30;78.30
41722;DHT22;27407;24.142;-110.310;2023-03-11T08:18:41;18.50;78.10
41722;DHT22;27407;24.142;-110.310;2023-03-11T08:21:14;19.50;79.30
41722;DHT22;27407;24.142;-110.310;2023-03-11T08:23:41;18.20;77.70
41722;DHT22;27407;24.142;-110.310;2023-03-11T08:26:19;18.70;78.40
41722;DHT22;27407;24.142;-110.310;2023-03-11T08:28:47;18.10;78.30
41722;DHT22;27407;24.142;-110.310;2023-03-11T08:31:29;18.20;77.60
41722;DHT22;27407;24.142;-110.310;2023-03-11T08:33:58;18.20;77.30
41722;DHT22;27407;24.142;-110.310;2023-03-11T08:38:52;18.00;77.80
41722;DHT22;27407;24.142;-110.310;2023-03-11T08:41:19;18.20;79.10
41722;DHT22;27407;24.142;-110.310;2023-03-11T08:46:34;18.30;81.40
41722;DHT22;27407;24.142;-110.310;2023-03-11T08:49:02;18.10;80.40
41722;DHT22;27407;24.142;-110.310;2023-03-11T08:51:31;16.80;78.30
41722;DHT22;27407;24.142;-110.310;2023-03-11T08:53:58;18.20;79.00
41722;DHT22;27407;24.142;-110.310;2023-03-11T09:03:48;18.20;75.00
41722;DHT22;27407;24.142;-110.310;2023-03-11T09:06:16;18.30;74.40
41722;DHT22;27407;24.142;-110.310;2023-03-11T09:08:43;18.40;73.10
41722;DHT22;27407;24.142;-110.310;2023-03-11T09:11:10;18.50;72.70
41722;DHT22;27407;24.142;-110.310;2023-03-11T09:13:41;18.60;72.10
41722;DHT22;27407;24.142;-110.310;2023-03-11T09:16:16;18.50;72.80
41722;DHT22;27407;24.142;-110.310;2023-03-11T09:18:43;18.50;72.50
41722;DHT22;27407;24.142;-110.310;2023-03-11T09:23:38;18.50;73.50
41722;DHT22;27407;24.142;-110.310;2023-03-11T09:28:32;18.00;73.20
41722;DHT22;27407;24.142;-110.310;2023-03-11T09:33:25;18.00;73.50
41722;DHT22;27407;24.142;-110.310;2023-03-11T09:35:52;18.30;74.70
41722;DHT22;27407;24.142;-110.310;2023-03-11T09:40:48;18.60;74.50
41722;DHT22;27407;24.142;-110.310;2023-03-11T09:52:13;17.60;74.30
41722;DHT22;27407;24.142;-110.310;2023-03-11T09:54:45;17.50;75.00
41722;DHT22;27407;24.142;-110.310;2023-03-11T09:57:17;20.50;77.70
41722;DHT22;27407;24.142;-110.310;2023-03-11T09:59:45;18.30;77.00
41722;DHT22;27407;24.142;-110.310;2023-03-11T10:02:17;17.60;76.80
41722;DHT22;27407;24.142;-110.310;2023-03-11T10:07:17;17.30;76.90
41722;DHT22;27407;24.142;-110.310;2023-03-11T10:09:55;17.20;77.00
41722;DHT22;27407;24.142;-110.310;2023-03-11T10:20:36;17.30;75.20
41722;DHT22;27407;24.142;-110.310;2023-03-11T10:28:44;17.50;74.60
41722;DHT22;27407;24.142;-110.310;2023-03-11T10:31:20;17.50;74.20
41722;DHT22;27407;24.142;-110.310;2023-03-11T10:34:32;17.50;74.50
41722;DHT22;27407;24.142;-110.310;2023-03-11T10:37:13;17.50;74.20
41722;DHT22;27407;24.142;-110.310;2023-03-11T10:42:20;17.60;73.50
41722;DHT22;27407;24.142;-110.310;2023-03-11T10:47:24;17.60;74.50
41722;DHT22;27407;24.142;-110.310;2023-03-11T10:49:51;17.50;74.00
41722;DHT22;27407;24.142;-110.310;2023-03-11T10:52:19;17.70;74.00
41722;DHT22;27407;24.142;-110.310;2023-03-11T10:54:48;17.20;73.50
41722;DHT22;27407;24.142;-110.310;2023-03-11T10:57:35;17.40;73.40
41722;DHT22;27407;24.142;-110.310;2023-03-11T11:00:09;17.40;73.10
41722;DHT22;27407;24.142;-110.310;2023-03-11T11:02:54;17.50;72.80
41722;DHT22;27407;24.142;-110.310;2023-03-11T11:10:31;18.60;73.50
41722;DHT22;27407;24.142;-110.310;2023-03-11T11:13:02;17.80;73.10
41722;DHT22;27407;24.142;-110.310;2023-03-11T11:18:35;17.40;73.80
41722;DHT22;27407;24.142;-110.310;2023-03-11T11:21:06;17.50;72.60
41722;DHT22;27407;24.142;-110.310;2023-03-11T11:23:43;17.70;70.70
41722;DHT22;27407;24.142;-110.310;2023-03-11T11:31:22;18.50;68.40
41722;DHT22;27407;24.142;-110.310;2023-03-11T11:33:54;18.80;68.10
41722;DHT22;27407;24.142;-110.310;2023-03-11T11:36:28;18.90;68.00
41722;DHT22;27407;24.142;-110.310;2023-03-11T11:38:56;19.10;68.20
41722;DHT22;27407;24.142;-110.310;2023-03-11T11:41:26;19.40;68.40
41722;DHT22;27407;24.142;-110.310;2023-03-11T11:44:02;19.50;67.90
41722;DHT22;27407;24.142;-110.310;2023-03-11T11:49:56;20.30;69.80
41722;DHT22;27407;24.142;-110.310;2023-03-11T11:52:57;19.70;70.00
41722;DHT22;27407;24.142;-110.310;2023-03-11T11:55:28;19.60;68.40
41722;DHT22;27407;24.142;-110.310;2023-03-11T11:57:56;19.50;69.10
41722;DHT22;27407;24.142;-110.310;2023-03-11T12:00:36;19.40;69.70
41722;DHT22;27407;24.142;-110.310;2023-03-11T12:06:00;18.90;71.20
41722;DHT22;27407;24.142;-110.310;2023-03-11T12:11:25;18.80;72.70
41722;DHT22;27407;24.142;-110.310;2023-03-11T12:19:18;18.00;74.40
41722;DHT22;27407;24.142;-110.310;2023-03-11T12:27:29;17.40;76.30
41722;DHT22;27407;24.142;-110.310;2023-03-11T12:30:02;18.40;77.60
41722;DHT22;27407;24.142;-110.310;2023-03-11T12:35:25;16.90;78.80
41722;DHT22;27407;24.142;-110.310;2023-03-11T12:38:34;16.60;79.00
41722;DHT22;27407;24.142;-110.310;2023-03-11T12:46:10;16.60;80.70
41722;DHT22;27407;24.142;-110.310;2023-03-11T12:53:46;16.30;81.10
41722;DHT22;27407;24.142;-110.310;2023-03-11T13:02:03;16.40;81.80
41722;DHT22;27407;24.142;-110.310;2023-03-11T13:07:58;15.80;81.70
41722;DHT22;27407;24.142;-110.310;2023-03-11T13:13:35;15.60;81.40
41722;DHT22;27407;24.142;-110.310;2023-03-11T13:18:43;15.70;82.10
41722;DHT22;27407;24.142;-110.310;2023-03-11T13:36:02;15.30;84.90
41722;DHT22;27407;24.142;-110.310;2023-03-11T13:41:26;15.10;85.10
41722;DHT22;27407;24.142;-110.310;2023-03-11T13:43:55;15.20;84.80
41722;DHT22;27407;24.142;-110.310;2023-03-11T13:46:36;15.30;84.30
41722;DHT22;27407;24.142;-110.310;2023-03-11T13:49:15;15.20;83.60
41722;DHT22;27407;24.142;-110.310;2023-03-11T13:51:47;14.50;83.20
41722;DHT22;27407;24.142;-110.310;2023-03-11T13:56:57;15.20;82.10
41722;DHT22;27407;24.142;-110.310;2023-03-11T13:59:30;15.50;82.10
41722;DHT22;27407;24.142;-110.310;2023-03-11T14:02:14;15.40;81.90
41722;DHT22;27407;24.142;-110.310;2023-03-11T14:04:47;15.60;81.50
41722;DHT22;27407;24.142;-110.310;2023-03-11T14:12:13;15.70;81.60
41722;DHT22;27407;24.142;-110.310;2023-03-11T14:15:20;16.10;81.20
41722;DHT22;27407;24.142;-110.310;2023-03-11T14:20:20;16.20;79.40
41722;DHT22;27407;24.142;-110.310;2023-03-11T14:22:52;16.50;79.40
41722;DHT22;27407;24.142;-110.310;2023-03-11T14:25:27;16.70;78.70
41722;DHT22;27407;24.142;-110.310;2023-03-11T14:27:58;16.70;79.70
41722;DHT22;27407;24.142;-110.310;2023-03-11T14:30:28;16.80;79.40
41722;DHT22;27407;24.142;-110.310;2023-03-11T14:33:17;16.80;77.30
41722;DHT22;27407;24.142;-110.310;2023-03-11T14:35:54;17.00;77.00
41722;DHT22;27407;24.142;-110.310;2023-03-11T14:38:26;19.30;78.40
41722;DHT22;27407;24.142;-110.310;2023-03-11T14:41:00;17.40;75.40
41722;DHT22;27407;24.142;-110.310;2023-03-11T14:43:40;17.50;75.80
41722;DHT22;27407;24.142;-110.310;2023-03-11T14:46:09;17.60;76.10
41722;DHT22;27407;24.142;-110.310;2023-03-11T14:48:42;17.90;77.00
41722;DHT22;27407;24.142;-110.310;2023-03-11T14:51:29;17.80;76.90
41722;DHT22;27407;24.142;-110.310;2023-03-11T14:54:12;18.20;76.80
41722;DHT22;27407;24.142;-110.310;2023-03-11T14:56:46;18.40;77.60
41722;DHT22;27407;24.142;-110.310;2023-03-11T14:59:25;18.50;78.20
41722;DHT22;27407;24.142;-110.310;2023-03-11T15:01:55;18.60;78.00
41722;DHT22;27407;24.142;-110.310;2023-03-11T15:04:31;18.60;77.70
41722;DHT22;27407;24.142;-110.310;2023-03-11T15:06:59;18.30;76.40
41722;DHT22;27407;24.142;-110.310;2023-03-11T15:09:27;18.90;75.10
41722;DHT22;27407;24.142;-110.310;2023-03-11T15:12:02;19.50;74.70
41722;DHT22;27407;24.142;-110.310;2023-03-11T15:14:47;19.60;74.70
41722;DHT22;27407;24.142;-110.310;2023-03-11T15:17:27;19.70;74.30
41722;DHT22;27407;24.142;-110.310;2023-03-11T15:19:54;19.80;72.40
41722;DHT22;27407;24.142;-110.310;2023-03-11T15:22:33;19.80;70.60
41722;DHT22;27407;24.142;-110.310;2023-03-11T15:25:02;19.30;69.80
41722;DHT22;27407;24.142;-110.310;2023-03-11T15:27:35;20.60;69.70
41722;DHT22;27407;24.142;-110.310;2023-03-11T15:30:27;20.90;70.30
41722;DHT22;27407;24.142;-110.310;2023-03-11T15:32:52;21.00;70.40
41722;DHT22;27407;24.142;-110.310;2023-03-11T15:35:21;21.00;70.50
41722;DHT22;27407;24.142;-110.310;2023-03-11T15:37:51;21.30;70.30
41722;DHT22;27407;24.142;-110.310;2023-03-11T15:40:37;21.50;69.00
41722;DHT22;27407;24.142;-110.310;2023-03-11T15:45:42;23.40;69.10
41722;DHT22;27407;24.142;-110.310;2023-03-11T15:48:10;22.30;69.00
41722;DHT22;27407;24.142;-110.310;2023-03-11T15:50:52;22.80;67.70
41722;DHT22;27407;24.142;-110.310;2023-03-11T15:53:20;22.80;66.70
41722;DHT22;27407;24.142;-110.310;2023-03-11T15:55:47;23.00;65.30
41722;DHT22;27407;24.142;-110.310;2023-03-11T15:58:16;22.90;64.70
41722;DHT22;27407;24.142;-110.310;2023-03-11T16:00:49;23.50;64.60
41722;DHT22;27407;24.142;-110.310;2023-03-11T16:03:16;23.80;63.20
41722;DHT22;27407;24.142;-110.310;2023-03-11T16:05:43;23.00;62.90
41722;DHT22;27407;24.142;-110.310;2023-03-11T16:08:10;24.30;61.70
41722;DHT22;27407;24.142;-110.310;2023-03-11T16:10:37;24.20;60.90
41722;DHT22;27407;24.142;-110.310;2023-03-11T16:13:04;24.60;59.30
41722;DHT22;27407;24.142;-110.310;2023-03-11T16:15:33;24.90;59.50
41722;DHT22;27407;24.142;-110.310;2023-03-11T16:18:05;26.80;60.10
41722;DHT22;27407;24.142;-110.310;2023-03-11T16:20:49;25.40;57.30
41722;DHT22;27407;24.142;-110.310;2023-03-11T16:23:28;25.60;57.80
41722;DHT22;27407;24.142;-110.310;2023-03-11T16:26:01;25.80;57.90
41722;DHT22;27407;24.142;-110.310;2023-03-11T16:28:28;26.00;56.70
41722;DHT22;27407;24.142;-110.310;2023-03-11T16:30:55;26.20;55.30
41722;DHT22;27407;24.142;-110.310;2023-03-11T16:35:55;26.80;57.80
41722;DHT22;27407;24.142;-110.310;2023-03-11T16:38:31;26.90;58.00
41722;DHT22;27407;24.142;-110.310;2023-03-11T16:45:59;27.50;57.40
41722;DHT22;27407;24.142;-110.310;2023-03-11T16:48:26;27.60;57.30
41722;DHT22;27407;24.142;-110.310;2023-03-11T16:50:53;28.30;55.40
41722;DHT22;27407;24.142;-110.310;2023-03-11T16:53:19;28.00;54.10
41722;DHT22;27407;24.142;-110.310;2023-03-11T16:55:47;26.90;53.70
41722;DHT22;27407;24.142;-110.310;2023-03-11T16:58:14;28.30;53.90
41722;DHT22;27407;24.142;-110.310;2023-03-11T17:00:41;28.20;53.10
41722;DHT22;27407;24.142;-110.310;2023-03-11T17:03:10;28.50;53.10
41722;DHT22;27407;24.142;-110.310;2023-03-11T17:08:05;28.50;52.60
41722;DHT22;27407;24.142;-110.310;2023-03-11T17:10:36;28.60;52.30
41722;DHT22;27407;24.142;-110.310;2023-03-11T17:13:05;28.50;53.10
41722;DHT22;27407;24.142;-110.310;2023-03-11T17:15:31;28.60;52.50
41722;DHT22;27407;24.142;-110.310;2023-03-11T17:18:00;29.00;53.30
41722;DHT22;27407;24.142;-110.310;2023-03-11T17:20:27;29.00;52.90
41722;DHT22;27407;24.142;-110.310;2023-03-11T17:22:54;27.80;51.60
41722;DHT22;27407;24.142;-110.310;2023-03-11T17:25:21;29.20;52.40
41722;DHT22;27407;24.142;-110.310;2023-03-11T17:27:49;29.50;52.40
41722;DHT22;27407;24.142;-110.310;2023-03-11T17:30:16;29.50;51.90
41722;DHT22;27407;24.142;-110.310;2023-03-11T17:40:03;30.00;51.20
41722;DHT22;27407;24.142;-110.310;2023-03-11T17:42:30;30.00;51.40
41722;DHT22;27407;24.142;-110.310;2023-03-11T17:44:57;30.00;51.50
41722;DHT22;27407;24.142;-110.310;2023-03-11T17:47:24;30.80;51.10
41722;DHT22;27407;24.142;-110.310;2023-03-11T17:49:53;29.70;49.10
41722;DHT22;27407;24.142;-110.310;2023-03-11T17:52:20;31.30;49.60
41722;DHT22;27407;24.142;-110.310;2023-03-11T17:54:49;31.70;49.00
41722;DHT22;27407;24.142;-110.310;2023-03-11T17:57:18;31.80;49.40
41722;DHT22;27407;24.142;-110.310;2023-03-11T18:02:14;32.30;47.90
41722;DHT22;27407;24.142;-110.310;2023-03-11T18:04:41;32.40;47.20
41722;DHT22;27407;24.142;-110.310;2023-03-11T18:07:13;32.30;46.80
41722;DHT22;27407;24.142;-110.310;2023-03-11T18:09:40;32.50;47.30
41722;DHT22;27407;24.142;-110.310;2023-03-11T18:12:07;32.90;46.40
41722;DHT22;27407;24.142;-110.310;2023-03-11T18:14:36;33.10;45.30
41722;DHT22;27407;24.142;-110.310;2023-03-11T18:17:02;33.00;46.30
41722;DHT22;27407;24.142;-110.310;2023-03-11T18:19:32;32.90;45.50
41722;DHT22;27407;24.142;-110.310;2023-03-11T18:22:05;32.90;47.20
41722;DHT22;27407;24.142;-110.310;2023-03-11T18:24:31;32.80;47.80
41722;DHT22;27407;24.142;-110.310;2023-03-11T18:26:58;32.80;46.40
41722;DHT22;27407;24.142;-110.310;2023-03-11T18:29:27;32.80;46.80
41722;DHT22;27407;24.142;-110.310;2023-03-11T18:31:54;32.90;47.00
41722;DHT22;27407;24.142;-110.310;2023-03-11T18:34:22;32.80;47.40
41722;DHT22;27407;24.142;-110.310;2023-03-11T18:41:42;33.50;47.50
41722;DHT22;27407;24.142;-110.310;2023-03-11T18:44:08;33.80;48.90
41722;DHT22;27407;24.142;-110.310;2023-03-11T18:46:36;33.50;48.10
41722;DHT22;27407;24.142;-110.310;2023-03-11T18:49:03;33.20;48.30
41722;DHT22;27407;24.142;-110.310;2023-03-11T18:51:31;32.50;49.30
41722;DHT22;27407;24.142;-110.310;2023-03-11T18:53:58;31.90;49.40
41722;DHT22;27407;24.142;-110.310;2023-03-11T18:56:26;32.10;50.80
41722;DHT22;27407;24.142;-110.310;2023-03-11T18:58:57;31.50;51.20
41722;DHT22;27407;24.142;-110.310;2023-03-11T19:01:24;31.20;51.60
41722;DHT22;27407;24.142;-110.310;2023-03-11T19:03:52;31.40;51.50
41722;DHT22;27407;24.142;-110.310;2023-03-11T19:06:20;31.60;51.70
41722;DHT22;27407;24.142;-110.310;2023-03-11T19:08:47;31.90;50.90
41722;DHT22;27407;24.142;-110.310;2023-03-11T19:11:17;36.20;55.10
41722;DHT22;27407;24.142;-110.310;2023-03-11T19:13:54;32.00;50.50
41722;DHT22;27407;24.142;-110.310;2023-03-11T19:16:31;32.30;50.70
41722;DHT22;27407;24.142;-110.310;2023-03-11T19:18:57;30.60;49.40
41722;DHT22;27407;24.142;-110.310;2023-03-11T19:21:25;33.10;49.90
41722;DHT22;27407;24.142;-110.310;2023-03-11T19:23:52;33.30;52.50
41722;DHT22;27407;24.142;-110.310;2023-03-11T19:26:21;34.10;50.10
41722;DHT22;27407;24.142;-110.310;2023-03-11T19:31:14;35.10;48.50
41722;DHT22;27407;24.142;-110.310;2023-03-11T19:33:42;35.10;48.00
41722;DHT22;27407;24.142;-110.310;2023-03-11T19:36:15;35.30;50.10
41722;DHT22;27407;24.142;-110.310;2023-03-11T19:38:42;35.50;46.30
41722;DHT22;27407;24.142;-110.310;2023-03-11T19:41:12;36.40;46.70
41722;DHT22;27407;24.142;-110.310;2023-03-11T19:43:40;35.90;44.20
41722;DHT22;27407;24.142;-110.310;2023-03-11T19:46:09;35.80;44.90
41722;DHT22;27407;24.142;-110.310;2023-03-11T19:48:37;36.20;44.60
41722;DHT22;27407;24.142;-110.310;2023-03-11T19:51:04;36.10;44.80
41722;DHT22;27407;24.142;-110.310;2023-03-11T19:53:32;33.90;44.90
41722;DHT22;27407;24.142;-110.310;2023-03-11T19:55:59;34.10;45.80
41722;DHT22;27407;24.142;-110.310;2023-03-11T19:58:28;36.20;45.20
41722;DHT22;27407;24.142;-110.310;2023-03-11T20:00:58;36.60;46.80
41722;DHT22;27407;24.142;-110.310;2023-03-11T20:03:25;40.20;50.00